sensor_id;sensor_type;location;lat;lon;timestamp;temperature;humidity
6164;DHT22;3114;48.362;10.994;2022-12-29T00:00:02;8.40;99.90
6164;DHT22;3114;48.362;10.994;2022-12-29T00:02:31;8.30;99.90
6164;DHT22;3114;48.362;10.994;2022-12-29T00:04:58;8.30;99.90
6164;DHT22;3114;48.362;10.994;2022-12-29T00:07:24;8.30;99.90
6164;DHT22;3114;48.362;10.994;2022-12-29T00:09:51;8.40;99.90
6164;DHT22;3114;48.362;10.994;2022-12-29T00:12:18;8.40;99.90
6164;DHT22;3114;48.362;10.994;2022-12-29T00:14:45;8.40;99.90
6164;DHT22;3114;48.362;10.994;2022-12-29T00:17:31;8.30;99.90
6164;DHT22;3114;48.362;10.994;2022-12-29T00:19:58;8.40;99.90
6164;DHT22;3114;48.362;10.994;2022-12-29T00:22:42;8.20;99.90
6164;DHT22;3114;48.362;10.994;2022-12-29T00:25:41;8.20;99.90
6164;DHT22;3114;48.362;10.994;2022-12-29T00:28:25;8.30;99.90
6164;DHT22;3114;48.362;10.994;2022-12-29T00:31:11;8.40;99.90
6164;DHT22;3114;48.362;10.994;2022-12-29T00:33:57;8.30;99.90
6164;DHT22;3114;48.362;10.994;2022-12-29T00:36:42;8.30;99.90
6164;DHT22;3114;48.362;10.994;2022-12-29T00:39:12;8.40;99.90
6164;DHT22;3114;48.362;10.994;2022-12-29T00:42:03;8.50;99.90
6164;DHT22;3114;48.362;10.994;2022-12-29T00:44:47;8.40;99.90
6164;DHT22;3114;48.362;10.994;2022-12-29T00:47:14;8.40;99.90
6164;DHT22;3114;48.362;10.994;2022-12-29T00:49:42;8.50;99.90
6164;DHT22;3114;48.362;10.994;2022-12-29T00:52:10;8.60;99.90
6164;DHT22;3114;48.362;10.994;2022-12-29T00:54:38;8.60;99.90
6164;DHT22;3114;48.362;10.994;2022-12-29T00:57:06;8.60;99.90
6164;DHT22;3114;48.362;10.994;2022-12-29T00:59:35;8.50;99.90
6164;DHT22;3114;48.362;10.994;2022-12-29T01:02:02;8.60;99.90
6164;DHT22;3114;48.362;10.994;2022-12-29T01:04:29;8.40;99.90
6164;DHT22;3114;48.362;10.994;2022-12-29T01:06:57;8.30;99.90
6164;DHT22;3114;48.362;10.994;2022-12-29T01:09:24;8.20;99.90
6164;DHT22;3114;48.362;10.994;2022-12-29T01:12:09;8.40;99.90
6164;DHT22;3114;48.362;10.994;2022-12-29T01:14:37;8.30;99.90
6164;DHT22;3114;48.362;10.994;2022-12-29T01:17:04;8.20;99.90
6164;DHT22;3114;48.362;10.994;2022-12-29T01:19:31;8.40;99.90
6164;DHT22;3114;48.362;10.994;2022-12-29T01:21:59;8.50;99.90
6164;DHT22;3114;48.362;10.994;2022-12-29T01:24:26;8.60;99.90
6164;DHT22;3114;48.362;10.994;2022-12-29T01:26:53;8.60;99.90
6164;DHT22;3114;48.362;10.994;2022-12-29T01:29:21;8.60;99.90
6164;DHT22;3114;48.362;10.994;2022-12-29T01:31:47;8.60;99.90
6164;DHT22;3114;48.362;10.994;2022-12-29T01:36:42;8.90;99.90
6164;DHT22;3114;48.362;10.994;2022-12-29T01:39:11;8.80;99.90
6164;DHT22;3114;48.362;10.994;2022-12-29T01:41:37;8.80;99.90
6164;DHT22;3114;48.362;10.994;2022-12-29T01:47:06;8.70;99.90
6164;DHT22;3114;48.362;10.994;2022-12-29T01:49:34;8.90;99.90
6164;DHT22;3114;48.362;10.994;2022-12-29T01:52:04;8.80;99.90
6164;DHT22;3114;48.362;10.994;2022-12-29T01:54:36;8.90;99.90
6164;DHT22;3114;48.362;10.994;2022-12-29T01:57:08;8.90;99.90
6164;DHT22;3114;48.362;10.994;2022-12-29T01:59:39;8.80;99.90
6164;DHT22;3114;48.362;10.994;2022-12-29T02:02:08;8.90;99.90
6164;DHT22;3114;48.362;10.994;2022-12-29T02:04:40;8.90;99.90
6164;DHT22;3114;48.362;10.994;2022-12-29T02:07:13;8.80;99.90
6164;DHT22;3114;48.362;10.994;2022-12-29T02:09:43;8.70;99.90
6164;DHT22;3114;48.362;10.994;2022-12-29T02:12:13;8.90;99.90
6164;DHT22;3114;48.362;10.994;2022-12-29T02:14:40;8.90;99.90
6164;DHT22;3114;48.362;10.994;2022-12-29T02:17:15;8.90;99.90
6164;DHT22;3114;48.362;10.994;2022-12-29T02:20:03;8.80;99.90
6164;DHT22;3114;48.362;10.994;2022-12-29T02:22:42;8.90;99.90
6164;DHT22;3114;48.362;10.994;2022-12-29T02:25:41;8.90;99.90
6164;DHT22;3114;48.362;10.994;2022-12-29T02:28:47;8.80;99.90
6164;DHT22;3114;48.362;10.994;2022-12-29T02:31:27;8.80;99.90
6164;DHT22;3114;48.362;10.994;2022-12-29T02:34:03;8.90;99.90
6164;DHT22;3114;48.362;10.994;2022-12-29T02:36:40;8.90;99.90
6164;DHT22;3114;48.362;10.994;2022-12-29T02:39:15;9.00;99.90
6164;DHT22;3114;48.362;10.994;2022-12-29T02:41:49;9.00;99.90
6164;DHT22;3114;48.362;10.994;2022-12-29T02:44:26;9.10;99.90
6164;DHT22;3114;48.362;10.994;2022-12-29T02:47:00;9.10;99.90
6164;DHT22;3114;48.362;10.994;2022-12-29T02:49:33;9.00;99.90
6164;DHT22;3114;48.362;10.994;2022-12-29T02:52:06;9.00;99.90
6164;DHT22;3114;48.362;10.994;2022-12-29T02:54:33;9.10;99.90
6164;DHT22;3114;48.362;10.994;2022-12-29T02:57:13;9.10;99.90
6164;DHT22;3114;48.362;10.994;2022-12-29T02:59:41;9.20;99.90
6164;DHT22;3114;48.362;10.994;2022-12-29T03:02:27;9.20;99.90
6164;DHT22;3114;48.362;10.994;2022-12-29T03:05:19;9.10;99.90
6164;DHT22;3114;48.362;10.994;2022-12-29T03:07:55;9.10;99.90
6164;DHT22;3114;48.362;10.994;2022-12-29T03:10:35;9.10;99.90
6164;DHT22;3114;48.362;10.994;2022-12-29T03:13:12;9.20;99.90
6164;DHT22;3114;48.362;10.994;2022-12-29T03:16:04;9.00;99.90
6164;DHT22;3114;48.362;10.994;2022-12-29T03:18:40;9.10;99.90
6164;DHT22;3114;48.362;10.994;2022-12-29T03:21:12;9.20;99.90
6164;DHT22;3114;48.362;10.994;2022-12-29T03:23:43;9.00;99.90
6164;DHT22;3114;48.362;10.994;2022-12-29T03:26:14;9.10;99.90
6164;DHT22;3114;48.362;10.994;2022-12-29T03:28:47;9.10;99.90
6164;DHT22;3114;48.362;10.994;2022-12-29T03:31:17;9.10;99.90
6164;DHT22;3114;48.362;10.994;2022-12-29T03:33:47;9.20;99.90
6164;DHT22;3114;48.362;10.994;2022-12-29T03:36:23;9.30;99.90
6164;DHT22;3114;48.362;10.994;2022-12-29T03:38:58;9.10;99.90
6164;DHT22;3114;48.362;10.994;2022-12-29T03:41:28;9.10;99.90
6164;DHT22;3114;48.362;10.994;2022-12-29T03:43:56;8.90;99.90
6164;DHT22;3114;48.362;10.994;2022-12-29T03:46:23;8.90;99.90
6164;DHT22;3114;48.362;10.994;2022-12-29T03:48:51;9.00;99.90
6164;DHT22;3114;48.362;10.994;2022-12-29T03:51:18;9.00;99.90
6164;DHT22;3114;48.362;10.994;2022-12-29T03:53:45;9.00;99.90
6164;DHT22;3114;48.362;10.994;2022-12-29T03:56:12;9.00;99.90
6164;DHT22;3114;48.362;10.994;2022-12-29T03:58:39;8.90;99.90
6164;DHT22;3114;48.362;10.994;2022-12-29T04:01:06;9.00;99.90
6164;DHT22;3114;48.362;10.994;2022-12-29T04:03:32;9.10;99.90
6164;DHT22;3114;48.362;10.994;2022-12-29T04:06:01;9.10;99.90
6164;DHT22;3114;48.362;10.994;2022-12-29T04:08:27;9.00;99.90
6164;DHT22;3114;48.362;10.994;2022-12-29T04:10:54;9.00;99.90
6164;DHT22;3114;48.362;10.994;2022-12-29T04:13:21;9.00;99.90
6164;DHT22;3114;48.362;10.994;2022-12-29T04:15:48;9.20;99.90
6164;DHT22;3114;48.362;10.994;2022-12-29T04:18:15;9.30;99.90
6164;DHT22;3114;48.362;10.994;2022-12-29T04:20:42;9.40;99.90
6164;DHT22;3114;48.362;10.994;2022-12-29T04:23:30;9.40;99.90
6164;DHT22;3114;48.362;10.994;2022-12-29T04:25:58;9.40;99.90
6164;DHT22;3114;48.362;10.994;2022-12-29T04:28:26;9.40;99.90
6164;DHT22;3114;48.362;10.994;2022-12-29T04:30:53;9.40;99.90
6164;DHT22;3114;48.362;10.994;2022-12-29T04:33:20;9.40;99.90
6164;DHT22;3114;48.362;10.994;2022-12-29T04:35:47;9.40;99.90
6164;DHT22;3114;48.362;10.994;2022-12-29T04:38:15;9.50;99.90
6164;DHT22;3114;48.362;10.994;2022-12-29T04:40:44;9.40;99.90
6164;DHT22;3114;48.362;10.994;2022-12-29T04:43:11;9.40;99.90
6164;DHT22;3114;48.362;10.994;2022-12-29T04:45:38;9.40;99.90
6164;DHT22;3114;48.362;10.994;2022-12-29T04:48:06;9.40;99.90
6164;DHT22;3114;48.362;10.994;2022-12-29T04:50:32;9.40;99.90
6164;DHT22;3114;48.362;10.994;2022-12-29T04:52:59;9.50;99.90
6164;DHT22;3114;48.362;10.994;2022-12-29T04:55:26;9.50;99.90
6164;DHT22;3114;48.362;10.994;2022-12-29T04:57:55;9.40;99.90
6164;DHT22;3114;48.362;10.994;2022-12-29T05:00:22;9.50;99.90
6164;DHT22;3114;48.362;10.994;2022-12-29T05:02:49;9.40;99.90
6164;DHT22;3114;48.362;10.994;2022-12-29T05:05:17;9.50;99.90
6164;DHT22;3114;48.362;10.994;2022-12-29T05:07:44;9.50;99.90
6164;DHT22;3114;48.362;10.994;2022-12-29T05:10:11;9.50;99.90
6164;DHT22;3114;48.362;10.994;2022-12-29T05:12:38;9.50;99.90
6164;DHT22;3114;48.362;10.994;2022-12-29T05:15:11;9.50;99.90
6164;DHT22;3114;48.362;10.994;2022-12-29T05:17:38;9.50;99.90
6164;DHT22;3114;48.362;10.994;2022-12-29T05:20:06;9.60;99.90
6164;DHT22;3114;48.362;10.994;2022-12-29T05:22:33;9.60;99.90
6164;DHT22;3114;48.362;10.994;2022-12-29T05:25:00;9.60;99.90
6164;DHT22;3114;48.362;10.994;2022-12-29T05:27:27;9.60;99.90
6164;DHT22;3114;48.362;10.994;2022-12-29T05:29:54;9.60;99.90
6164;DHT22;3114;48.362;10.994;2022-12-29T05:32:22;9.70;99.90
6164;DHT22;3114;48.362;10.994;2022-12-29T05:34:49;9.60;99.90
6164;DHT22;3114;48.362;10.994;2022-12-29T05:37:16;9.50;99.90
6164;DHT22;3114;48.362;10.994;2022-12-29T05:39:43;9.60;99.90
6164;DHT22;3114;48.362;10.994;2022-12-29T05:42:10;9.50;99.90
6164;DHT22;3114;48.362;10.994;2022-12-29T05:44:37;9.50;99.90
6164;DHT22;3114;48.362;10.994;2022-12-29T05:47:04;9.50;99.90
6164;DHT22;3114;48.362;10.994;2022-12-29T05:49:32;9.60;99.90
6164;DHT22;3114;48.362;10.994;2022-12-29T05:51:59;9.60;99.90
6164;DHT22;3114;48.362;10.994;2022-12-29T05:54:26;9.50;99.90
6164;DHT22;3114;48.362;10.994;2022-12-29T05:56:53;9.40;99.90
6164;DHT22;3114;48.362;10.994;2022-12-29T05:59:20;9.40;99.90
6164;DHT22;3114;48.362;10.994;2022-12-29T06:01:46;9.40;99.90
6164;DHT22;3114;48.362;10.994;2022-12-29T06:04:13;9.30;99.90
6164;DHT22;3114;48.362;10.994;2022-12-29T06:06:41;9.30;99.90
6164;DHT22;3114;48.362;10.994;2022-12-29T06:09:09;9.30;99.90
6164;DHT22;3114;48.362;10.994;2022-12-29T06:11:36;9.10;99.90
6164;DHT22;3114;48.362;10.994;2022-12-29T06:14:03;9.10;99.90
6164;DHT22;3114;48.362;10.994;2022-12-29T06:16:30;9.00;99.90
6164;DHT22;3114;48.362;10.994;2022-12-29T06:18:57;9.00;99.90
6164;DHT22;3114;48.362;10.994;2022-12-29T06:21:24;9.00;99.90
6164;DHT22;3114;48.362;10.994;2022-12-29T06:23:52;9.00;99.90
6164;DHT22;3114;48.362;10.994;2022-12-29T06:26:19;9.10;99.90
6164;DHT22;3114;48.362;10.994;2022-12-29T06:28:46;9.10;99.90
6164;DHT22;3114;48.362;10.994;2022-12-29T06:31:12;9.20;99.90
6164;DHT22;3114;48.362;10.994;2022-12-29T06:33:39;9.20;99.90
6164;DHT22;3114;48.362;10.994;2022-12-29T06:36:07;9.20;99.90
6164;DHT22;3114;48.362;10.994;2022-12-29T06:38:34;9.10;99.90
6164;DHT22;3114;48.362;10.994;2022-12-29T06:41:02;9.20;99.90
6164;DHT22;3114;48.362;10.994;2022-12-29T06:43:29;9.20;99.90
6164;DHT22;3114;48.362;10.994;2022-12-29T06:45:57;9.20;99.90
6164;DHT22;3114;48.362;10.994;2022-12-29T06:48:24;9.10;99.90
6164;DHT22;3114;48.362;10.994;2022-12-29T06:50:51;9.20;99.90
6164;DHT22;3114;48.362;10.994;2022-12-29T06:53:18;9.20;99.90
6164;DHT22;3114;48.362;10.994;2022-12-29T06:55:45;9.20;99.90
6164;DHT22;3114;48.362;10.994;2022-12-29T06:58:13;9.30;99.90
6164;DHT22;3114;48.362;10.994;2022-12-29T07:00:40;9.30;99.90
6164;DHT22;3114;48.362;10.994;2022-12-29T07:03:06;9.30;99.90
6164;DHT22;3114;48.362;10.994;2022-12-29T07:05:33;9.30;99.90
6164;DHT22;3114;48.362;10.994;2022-12-29T07:08:00;9.30;99.90
6164;DHT22;3114;48.362;10.994;2022-12-29T07:10:27;9.30;99.90
6164;DHT22;3114;48.362;10.994;2022-12-29T07:12:54;9.30;99.90
6164;DHT22;3114;48.362;10.994;2022-12-29T07:15:23;9.30;99.90
6164;DHT22;3114;48.362;10.994;2022-12-29T07:17:49;9.40;99.90
6164;DHT22;3114;48.362;10.994;2022-12-29T07:20:17;9.40;99.90
6164;DHT22;3114;48.362;10.994;2022-12-29T07:22:44;9.40;99.90
6164;DHT22;3114;48.362;10.994;2022-12-29T07:25:12;9.50;99.90
6164;DHT22;3114;48.362;10.994;2022-12-29T07:27:39;9.50;99.90
6164;DHT22;3114;48.362;10.994;2022-12-29T07:30:07;9.40;99.90
6164;DHT22;3114;48.362;10.994;2022-12-29T07:32:35;9.40;99.90
6164;DHT22;3114;48.362;10.994;2022-12-29T07:35:02;9.50;99.90
6164;DHT22;3114;48.362;10.994;2022-12-29T07:37:29;9.50;99.90
6164;DHT22;3114;48.362;10.994;2022-12-29T07:39:56;9.50;99.90
6164;DHT22;3114;48.362;10.994;2022-12-29T07:42:23;9.60;99.90
6164;DHT22;3114;48.362;10.994;2022-12-29T07:44:50;9.70;99.90
6164;DHT22;3114;48.362;10.994;2022-12-29T07:47:17;9.70;99.90
6164;DHT22;3114;48.362;10.994;2022-12-29T07:49:45;9.60;99.90
6164;DHT22;3114;48.362;10.994;2022-12-29T07:52:13;9.70;99.90
6164;DHT22;3114;48.362;10.994;2022-12-29T07:54:40;9.70;99.90
6164;DHT22;3114;48.362;10.994;2022-12-29T07:57:08;9.80;99.90
6164;DHT22;3114;48.362;10.994;2022-12-29T07:59:35;9.80;99.90
6164;DHT22;3114;48.362;10.994;2022-12-29T08:02:02;9.80;99.90
6164;DHT22;3114;48.362;10.994;2022-12-29T08:04:28;9.80;99.90
6164;DHT22;3114;48.362;10.994;2022-12-29T08:06:57;9.90;99.90
6164;DHT22;3114;48.362;10.994;2022-12-29T08:09:24;9.90;99.90
6164;DHT22;3114;48.362;10.994;2022-12-29T08:11:51;10.10;99.90
6164;DHT22;3114;48.362;10.994;2022-12-29T08:14:18;10.00;99.90
6164;DHT22;3114;48.362;10.994;2022-12-29T08:16:44;10.10;99.90
6164;DHT22;3114;48.362;10.994;2022-12-29T08:19:12;10.00;99.90
6164;DHT22;3114;48.362;10.994;2022-12-29T08:21:39;10.10;99.90
6164;DHT22;3114;48.362;10.994;2022-12-29T08:24:08;10.20;99.90
6164;DHT22;3114;48.362;10.994;2022-12-29T08:26:35;10.20;99.90
6164;DHT22;3114;48.362;10.994;2022-12-29T08:29:02;10.30;99.90
6164;DHT22;3114;48.362;10.994;2022-12-29T08:31:29;10.30;99.90
6164;DHT22;3114;48.362;10.994;2022-12-29T08:33:56;10.30;99.90
6164;DHT22;3114;48.362;10.994;2022-12-29T08:36:22;10.30;99.90
6164;DHT22;3114;48.362;10.994;2022-12-29T08:38:49;10.40;99.90
6164;DHT22;3114;48.362;10.994;2022-12-29T08:41:17;10.50;99.90
6164;DHT22;3114;48.362;10.994;2022-12-29T08:43:45;10.50;99.90
6164;DHT22;3114;48.362;10.994;2022-12-29T08:46:12;10.50;99.90
6164;DHT22;3114;48.362;10.994;2022-12-29T08:48:39;10.40;99.90
6164;DHT22;3114;48.362;10.994;2022-12-29T08:51:06;10.40;99.90
6164;DHT22;3114;48.362;10.994;2022-12-29T08:53:33;10.40;99.90
6164;DHT22;3114;48.362;10.994;2022-12-29T08:56:01;10.60;99.90
6164;DHT22;3114;48.362;10.994;2022-12-29T09:00:57;10.80;99.90
6164;DHT22;3114;48.362;10.994;2022-12-29T09:03:25;10.70;99.90
6164;DHT22;3114;48.362;10.994;2022-12-29T09:05:53;10.80;99.90
6164;DHT22;3114;48.362;10.994;2022-12-29T09:08:21;10.80;99.90
6164;DHT22;3114;48.362;10.994;2022-12-29T09:10:48;10.80;99.90
6164;DHT22;3114;48.362;10.994;2022-12-29T09:13:16;10.90;99.90
6164;DHT22;3114;48.362;10.994;2022-12-29T09:15:44;10.80;99.90
6164;DHT22;3114;48.362;10.994;2022-12-29T09:18:11;10.80;99.90
6164;DHT22;3114;48.362;10.994;2022-12-29T09:20:38;10.80;99.90
6164;DHT22;3114;48.362;10.994;2022-12-29T09:23:05;10.70;99.90
6164;DHT22;3114;48.362;10.994;2022-12-29T09:25:33;10.80;99.90
6164;DHT22;3114;48.362;10.994;2022-12-29T09:28:00;10.80;99.90
6164;DHT22;3114;48.362;10.994;2022-12-29T09:30:29;10.80;99.90
6164;DHT22;3114;48.362;10.994;2022-12-29T09:32:57;10.70;99.90
6164;DHT22;3114;48.362;10.994;2022-12-29T09:35:24;10.80;99.90
6164;DHT22;3114;48.362;10.994;2022-12-29T09:37:51;10.70;99.90
6164;DHT22;3114;48.362;10.994;2022-12-29T09:40:27;10.70;99.90
6164;DHT22;3114;48.362;10.994;2022-12-29T09:43:17;10.70;99.90
6164;DHT22;3114;48.362;10.994;2022-12-29T09:45:52;10.70;99.90
6164;DHT22;3114;48.362;10.994;2022-12-29T09:48:26;10.70;99.90
6164;DHT22;3114;48.362;10.994;2022-12-29T09:50:59;10.80;99.90
6164;DHT22;3114;48.362;10.994;2022-12-29T09:55:59;10.80;99.90
6164;DHT22;3114;48.362;10.994;2022-12-29T09:58:32;10.80;99.90
6164;DHT22;3114;48.362;10.994;2022-12-29T10:01:04;10.80;99.90
6164;DHT22;3114;48.362;10.994;2022-12-29T10:03:43;10.90;99.90
6164;DHT22;3114;48.362;10.994;2022-12-29T10:06:15;10.80;99.90
6164;DHT22;3114;48.362;10.994;2022-12-29T10:08:47;10.80;99.90
6164;DHT22;3114;48.362;10.994;2022-12-29T10:11:24;10.90;99.90
6164;DHT22;3114;48.362;10.994;2022-12-29T10:14:08;10.90;99.90
6164;DHT22;3114;48.362;10.994;2022-12-29T10:16:42;11.00;99.90
6164;DHT22;3114;48.362;10.994;2022-12-29T10:19:25;11.00;99.90
6164;DHT22;3114;48.362;10.994;2022-12-29T10:22:03;11.10;99.90
6164;DHT22;3114;48.362;10.994;2022-12-29T10:24:35;11.10;99.90
6164;DHT22;3114;48.362;10.994;2022-12-29T10:27:07;11.20;99.90
6164;DHT22;3114;48.362;10.994;2022-12-29T10:32:09;11.40;99.90
6164;DHT22;3114;48.362;10.994;2022-12-29T10:34:43;11.30;99.90
6164;DHT22;3114;48.362;10.994;2022-12-29T10:37:17;11.30;99.90
6164;DHT22;3114;48.362;10.994;2022-12-29T10:39:50;11.30;99.90
6164;DHT22;3114;48.362;10.994;2022-12-29T10:42:21;11.30;99.90
6164;DHT22;3114;48.362;10.994;2022-12-29T10:44:53;11.30;99.90
6164;DHT22;3114;48.362;10.994;2022-12-29T10:47:23;11.30;99.90
6164;DHT22;3114;48.362;10.994;2022-12-29T10:49:53;11.40;99.90
6164;DHT22;3114;48.362;10.994;2022-12-29T10:52:21;11.40;99.90
6164;DHT22;3114;48.362;10.994;2022-12-29T10:54:51;11.40;99.90
6164;DHT22;3114;48.362;10.994;2022-12-29T10:59:51;11.60;99.90
6164;DHT22;3114;48.362;10.994;2022-12-29T11:05:23;11.60;99.90
6164;DHT22;3114;48.362;10.994;2022-12-29T11:07:56;11.70;99.90
6164;DHT22;3114;48.362;10.994;2022-12-29T11:10:30;11.70;99.90
6164;DHT22;3114;48.362;10.994;2022-12-29T11:13:04;11.70;99.90
6164;DHT22;3114;48.362;10.994;2022-12-29T11:15:39;11.70;99.90
6164;DHT22;3114;48.362;10.994;2022-12-29T11:18:21;11.70;99.90
6164;DHT22;3114;48.362;10.994;2022-12-29T11:20:51;11.80;99.90
6164;DHT22;3114;48.362;10.994;2022-12-29T11:23:25;11.70;99.90
6164;DHT22;3114;48.362;10.994;2022-12-29T11:26:14;11.80;99.90
6164;DHT22;3114;48.362;10.994;2022-12-29T11:28:44;11.80;99.90
6164;DHT22;3114;48.362;10.994;2022-12-29T11:31:12;11.90;99.90
6164;DHT22;3114;48.362;10.994;2022-12-29T11:33:41;12.00;99.90
6164;DHT22;3114;48.362;10.994;2022-12-29T11:36:13;12.00;99.90
6164;DHT22;3114;48.362;10.994;2022-12-29T11:38:45;12.10;99.90
6164;DHT22;3114;48.362;10.994;2022-12-29T11:41:13;12.20;99.90
6164;DHT22;3114;48.362;10.994;2022-12-29T11:43:45;12.30;99.90
6164;DHT22;3114;48.362;10.994;2022-12-29T11:46:16;12.30;99.90
6164;DHT22;3114;48.362;10.994;2022-12-29T11:48:44;12.40;99.90
6164;DHT22;3114;48.362;10.994;2022-12-29T11:53:50;12.70;99.90
6164;DHT22;3114;48.362;10.994;2022-12-29T11:56:21;12.80;99.90
6164;DHT22;3114;48.362;10.994;2022-12-29T11:58:50;12.80;99.90
6164;DHT22;3114;48.362;10.994;2022-12-29T12:01:23;12.70;99.90
6164;DHT22;3114;48.362;10.994;2022-12-29T12:04:01;12.80;99.90
6164;DHT22;3114;48.362;10.994;2022-12-29T12:06:33;12.90;99.90
6164;DHT22;3114;48.362;10.994;2022-12-29T12:09:05;12.90;99.90
6164;DHT22;3114;48.362;10.994;2022-12-29T12:11:36;12.90;99.90
6164;DHT22;3114;48.362;10.994;2022-12-29T12:14:10;13.00;99.90
6164;DHT22;3114;48.362;10.994;2022-12-29T12:16:41;13.00;99.90
6164;DHT22;3114;48.362;10.994;2022-12-29T12:19:15;12.90;99.90
6164;DHT22;3114;48.362;10.994;2022-12-29T12:21:49;12.80;99.90
6164;DHT22;3114;48.362;10.994;2022-12-29T12:24:39;12.80;99.90
6164;DHT22;3114;48.362;10.994;2022-12-29T12:27:12;12.70;99.90
6164;DHT22;3114;48.362;10.994;2022-12-29T12:29:46;12.70;99.90
6164;DHT22;3114;48.362;10.994;2022-12-29T12:32:21;12.70;99.90
6164;DHT22;3114;48.362;10.994;2022-12-29T12:34:49;12.70;99.90
6164;DHT22;3114;48.362;10.994;2022-12-29T12:37:38;12.70;99.90
6164;DHT22;3114;48.362;10.994;2022-12-29T12:40:30;12.70;99.90
6164;DHT22;3114;48.362;10.994;2022-12-29T12:43:13;12.60;99.90
6164;DHT22;3114;48.362;10.994;2022-12-29T12:45:55;12.60;99.90
6164;DHT22;3114;48.362;10.994;2022-12-29T12:48:42;12.50;99.90
6164;DHT22;3114;48.362;10.994;2022-12-29T12:51:17;12.60;99.90
6164;DHT22;3114;48.362;10.994;2022-12-29T12:53:57;12.50;99.90
6164;DHT22;3114;48.362;10.994;2022-12-29T12:56:44;12.60;99.90
6164;DHT22;3114;48.362;10.994;2022-12-29T12:59:22;12.70;99.90
6164;DHT22;3114;48.362;10.994;2022-12-29T13:02:00;12.80;99.90
6164;DHT22;3114;48.362;10.994;2022-12-29T13:07:36;12.90;99.90
6164;DHT22;3114;48.362;10.994;2022-12-29T13:10:22;12.80;99.90
6164;DHT22;3114;48.362;10.994;2022-12-29T13:12:58;12.70;99.90
6164;DHT22;3114;48.362;10.994;2022-12-29T13:15:40;12.70;99.90
6164;DHT22;3114;48.362;10.994;2022-12-29T13:18:17;12.70;99.90
6164;DHT22;3114;48.362;10.994;2022-12-29T13:20:52;12.70;99.90
6164;DHT22;3114;48.362;10.994;2022-12-29T13:23:23;12.60;99.90
6164;DHT22;3114;48.362;10.994;2022-12-29T13:26:00;12.60;99.90
6164;DHT22;3114;48.362;10.994;2022-12-29T13:28:36;12.60;99.90
6164;DHT22;3114;48.362;10.994;2022-12-29T13:31:09;12.60;99.90
6164;DHT22;3114;48.362;10.994;2022-12-29T13:33:44;12.60;99.90
6164;DHT22;3114;48.362;10.994;2022-12-29T13:36:25;12.60;99.90
6164;DHT22;3114;48.362;10.994;2022-12-29T13:39:01;12.60;99.90
6164;DHT22;3114;48.362;10.994;2022-12-29T13:41:34;12.60;99.90
6164;DHT22;3114;48.362;10.994;2022-12-29T13:44:03;12.50;99.90
6164;DHT22;3114;48.362;10.994;2022-12-29T13:46:35;12.50;99.90
6164;DHT22;3114;48.362;10.994;2022-12-29T13:49:07;12.50;99.90
6164;DHT22;3114;48.362;10.994;2022-12-29T13:51:37;12.50;99.90
6164;DHT22;3114;48.362;10.994;2022-12-29T13:54:16;12.50;99.90
6164;DHT22;3114;48.362;10.994;2022-12-29T13:56:51;12.50;99.90
6164;DHT22;3114;48.362;10.994;2022-12-29T13:59:26;12.50;99.90
6164;DHT22;3114;48.362;10.994;2022-12-29T14:01:58;12.40;99.90
6164;DHT22;3114;48.362;10.994;2022-12-29T14:04:28;12.40;99.90
6164;DHT22;3114;48.362;10.994;2022-12-29T14:07:03;12.40;99.90
6164;DHT22;3114;48.362;10.994;2022-12-29T14:09:41;12.40;99.90
6164;DHT22;3114;48.362;10.994;2022-12-29T14:12:22;12.30;99.90
6164;DHT22;3114;48.362;10.994;2022-12-29T14:14:52;12.30;99.90
6164;DHT22;3114;48.362;10.994;2022-12-29T14:17:20;12.30;99.90
6164;DHT22;3114;48.362;10.994;2022-12-29T14:19:51;12.30;99.90
6164;DHT22;3114;48.362;10.994;2022-12-29T14:22:23;12.30;99.90
6164;DHT22;3114;48.362;10.994;2022-12-29T14:24:51;12.20;99.90
6164;DHT22;3114;48.362;10.994;2022-12-29T14:27:53;12.20;99.90
6164;DHT22;3114;48.362;10.994;2022-12-29T14:30:54;12.20;99.90
6164;DHT22;3114;48.362;10.994;2022-12-29T14:33:22;12.20;99.90
6164;DHT22;3114;48.362;10.994;2022-12-29T14:35:52;12.10;99.90
6164;DHT22;3114;48.362;10.994;2022-12-29T14:38:22;12.10;99.90
6164;DHT22;3114;48.362;10.994;2022-12-29T14:40:50;12.10;99.90
6164;DHT22;3114;48.362;10.994;2022-12-29T14:43:22;12.00;99.90
6164;DHT22;3114;48.362;10.994;2022-12-29T14:45:56;12.10;99.90
6164;DHT22;3114;48.362;10.994;2022-12-29T14:48:39;12.00;99.90
6164;DHT22;3114;48.362;10.994;2022-12-29T14:51:19;12.00;99.90
6164;DHT22;3114;48.362;10.994;2022-12-29T14:53:48;11.90;99.90
6164;DHT22;3114;48.362;10.994;2022-12-29T14:56:16;11.90;99.90
6164;DHT22;3114;48.362;10.994;2022-12-29T14:58:48;11.90;99.90
6164;DHT22;3114;48.362;10.994;2022-12-29T15:01:23;11.90;99.90
6164;DHT22;3114;48.362;10.994;2022-12-29T15:03:54;11.80;99.90
6164;DHT22;3114;48.362;10.994;2022-12-29T15:06:25;11.80;99.90
6164;DHT22;3114;48.362;10.994;2022-12-29T15:09:04;11.80;99.90
6164;DHT22;3114;48.362;10.994;2022-12-29T15:11:45;11.70;99.90
6164;DHT22;3114;48.362;10.994;2022-12-29T15:14:36;11.70;99.90
6164;DHT22;3114;48.362;10.994;2022-12-29T15:17:10;11.70;99.90
6164;DHT22;3114;48.362;10.994;2022-12-29T15:19:38;11.60;99.90
6164;DHT22;3114;48.362;10.994;2022-12-29T15:22:05;11.60;99.90
6164;DHT22;3114;48.362;10.994;2022-12-29T15:24:33;11.70;99.90
6164;DHT22;3114;48.362;10.994;2022-12-29T15:27:03;11.60;99.90
6164;DHT22;3114;48.362;10.994;2022-12-29T15:29:37;11.60;99.90
6164;DHT22;3114;48.362;10.994;2022-12-29T15:32:19;11.70;99.90
6164;DHT22;3114;48.362;10.994;2022-12-29T15:34:49;11.90;99.90
6164;DHT22;3114;48.362;10.994;2022-12-29T15:37:18;12.20;99.90
6164;DHT22;3114;48.362;10.994;2022-12-29T15:42:29;12.40;99.90
6164;DHT22;3114;48.362;10.994;2022-12-29T15:45:03;12.40;99.90
6164;DHT22;3114;48.362;10.994;2022-12-29T15:47:30;12.40;99.90
6164;DHT22;3114;48.362;10.994;2022-12-29T15:50:01;12.40;99.90
6164;DHT22;3114;48.362;10.994;2022-12-29T15:52:30;12.50;99.90
6164;DHT22;3114;48.362;10.994;2022-12-29T15:54:58;12.50;99.90
6164;DHT22;3114;48.362;10.994;2022-12-29T15:57:29;12.50;99.90
6164;DHT22;3114;48.362;10.994;2022-12-29T15:59:56;12.50;99.90
6164;DHT22;3114;48.362;10.994;2022-12-29T16:02:25;12.50;99.90
6164;DHT22;3114;48.362;10.994;2022-12-29T16:04:52;12.30;99.90
6164;DHT22;3114;48.362;10.994;2022-12-29T16:07:26;12.20;99.90
6164;DHT22;3114;48.362;10.994;2022-12-29T16:09:58;12.10;99.90
6164;DHT22;3114;48.362;10.994;2022-12-29T16:12:29;11.80;99.90
6164;DHT22;3114;48.362;10.994;2022-12-29T16:14:59;11.80;99.90
6164;DHT22;3114;48.362;10.994;2022-12-29T16:17:31;11.70;99.90
6164;DHT22;3114;48.362;10.994;2022-12-29T16:20:00;11.60;99.90
6164;DHT22;3114;48.362;10.994;2022-12-29T16:22:30;11.60;99.90
6164;DHT22;3114;48.362;10.994;2022-12-29T16:25:01;11.60;99.90
6164;DHT22;3114;48.362;10.994;2022-12-29T16:27:33;11.60;99.90
6164;DHT22;3114;48.362;10.994;2022-12-29T16:30:05;11.70;99.90
6164;DHT22;3114;48.362;10.994;2022-12-29T16:32:34;11.70;99.90
6164;DHT22;3114;48.362;10.994;2022-12-29T16:35:13;11.70;99.90
6164;DHT22;3114;48.362;10.994;2022-12-29T16:37:43;11.60;99.90
6164;DHT22;3114;48.362;10.994;2022-12-29T16:40:30;11.70;99.90
6164;DHT22;3114;48.362;10.994;2022-12-29T16:42:59;11.70;99.90
6164;DHT22;3114;48.362;10.994;2022-12-29T16:48:35;11.80;99.90
6164;DHT22;3114;48.362;10.994;2022-12-29T16:51:05;11.70;99.90